Time;durP1;ratioP1;P1;durP2;ratioP2;P2;SDS_P1;SDS_P2;PMS_P1;PMS_P2;Temp;Humidity;BMP_temperature;BMP_pressure;BME280_temperature;BME280_humidity;BME280_pressure;Samples;Min_cycle;Max_cycle;Signal;HPM_P1;HPM_P2
2022/04/20 00:00:26;;;;;;;4.60;2.80;;;;;;;-150.27;100.00;61272.81;5245488;28;20033;-68
2022/04/20 00:02:57;;;;;;;5.00;2.80;;;;;;;-150.27;100.00;61272.81;5240165;28;20021;-69
2022/04/20 00:05:33;;;;;;;4.07;2.80;;;;;;;-150.27;100.00;61272.81;5246317;28;20041;-69
2022/04/20 00:08:05;;;;;;;6.77;3.00;;;;;;;-150.27;100.00;61272.81;5244891;28;20037;-69
2022/04/20 00:10:36;;;;;;;5.37;2.73;;;;;;;-150.27;100.00;61272.81;5228049;28;20026;-70
2022/04/20 00:13:08;;;;;;;6.83;2.80;;;;;;;-150.27;100.00;61272.81;5231402;28;20032;-70
2022/04/20 00:15:39;;;;;;;8.30;2.73;;;;;;;-150.27;100.00;61272.81;5229525;28;20038;-69
2022/04/20 00:18:10;;;;;;;2.97;2.67;;;;;;;-150.27;100.00;61272.81;5235124;28;20433;-69
2022/04/20 00:20:41;;;;;;;3.97;2.60;;;;;;;-150.27;100.00;61272.81;5250133;28;20075;-70
2022/04/20 00:23:13;;;;;;;4.03;2.80;;;;;;;-150.27;100.00;61272.81;5246564;28;20036;-69
2022/04/20 00:25:44;;;;;;;5.97;3.20;;;;;;;-150.27;100.00;61272.81;5241920;28;20033;-70
2022/04/20 00:28:15;;;;;;;4.10;2.57;;;;;;;-150.27;100.00;61272.81;5246762;28;20029;-70
2022/04/20 00:30:46;;;;;;;5.40;3.20;;;;;;;-150.27;100.00;61272.81;5238238;28;20039;-70
2022/04/20 00:33:18;;;;;;;4.20;3.10;;;;;;;-150.27;100.00;61272.81;5239924;28;20044;-70
2022/04/20 00:35:50;;;;;;;11.50;3.17;;;;;;;-150.27;100.00;61272.81;5231790;28;20025;-70
2022/04/20 00:38:22;;;;;;;6.60;3.20;;;;;;;-150.27;100.00;61272.81;5247349;28;20108;-70
2022/04/20 00:40:53;;;;;;;3.23;2.40;;;;;;;-150.27;100.00;61272.81;5228572;28;20111;-69
2022/04/20 00:43:25;;;;;;;7.40;3.03;;;;;;;-150.27;100.00;61272.81;5247953;28;20028;-70
2022/04/20 00:45:59;;;;;;;7.57;2.77;;;;;;;-150.27;100.00;61272.81;5226483;28;20492;-70
2022/04/20 00:48:32;;;;;;;4.47;2.75;;;;;;;-150.27;100.00;61272.81;5233311;28;20072;-70
2022/04/20 00:51:03;;;;;;;4.37;3.03;;;;;;;-150.27;100.00;61272.81;5242666;28;20483;-70
2022/04/20 00:53:34;;;;;;;7.57;3.30;;;;;;;-150.27;100.00;61272.81;5240111;28;20041;-70
2022/04/20 00:56:05;;;;;;;5.63;2.50;;;;;;;-150.27;100.00;61272.81;5238523;28;20753;-70
2022/04/20 00:58:39;;;;;;;5.50;3.33;;;;;;;-150.27;100.00;61272.81;5246833;28;20025;-70
2022/04/20 01:01:11;;;;;;;7.82;2.58;;;;;;;-150.27;100.00;61272.81;5237547;28;20489;-70
2022/04/20 01:03:43;;;;;;;5.17;3.73;;;;;;;-150.27;100.00;61272.81;5218171;28;20070;-70
2022/04/20 01:06:14;;;;;;;6.70;2.90;;;;;;;-150.27;100.00;61272.81;5244367;28;20120;-71
2022/04/20 01:08:46;;;;;;;5.57;3.17;;;;;;;-150.27;100.00;61272.81;5235723;28;20096;-70
2022/04/20 01:11:17;;;;;;;5.17;3.07;;;;;;;-150.27;100.00;61272.81;5269365;22;20048;-70
2022/04/20 01:13:48;;;;;;;9.07;3.13;;;;;;;-150.27;100.00;61272.81;5259446;28;20083;-70
2022/04/20 01:16:19;;;;;;;5.53;2.70;;;;;;;-150.27;100.00;61272.81;5228474;28;20720;-70
2022/04/20 01:18:51;;;;;;;7.60;2.90;;;;;;;-150.27;100.00;61272.81;5243360;28;20028;-70
2022/04/20 01:21:24;;;;;;;10.50;4.60;;;;;;;-150.27;100.00;61272.81;5245490;28;20040;-70
2022/04/20 01:23:55;;;;;;;5.13;3.20;;;;;;;-150.27;100.00;61272.81;5224538;28;20055;-71
2022/04/20 01:26:28;;;;;;;6.23;3.43;;;;;;;-150.27;100.00;61272.81;5249117;28;20029;-70
2022/04/20 01:29:02;;;;;;;6.73;3.20;;;;;;;-150.27;100.00;61272.81;5222886;28;20041;-71
2022/04/20 01:31:33;;;;;;;10.85;4.03;;;;;;;-150.27;100.00;61272.81;5246290;28;20095;-70
2022/04/20 01:34:04;;;;;;;4.27;3.20;;;;;;;-150.27;100.00;61272.81;5241021;28;20029;-70
2022/04/20 01:36:36;;;;;;;8.77;3.53;;;;;;;-150.27;100.00;61272.81;5235590;28;20029;-70
2022/04/20 01:39:08;;;;;;;9.60;3.30;;;;;;;-150.27;100.00;61272.81;5252928;28;20283;-70
2022/04/20 01:41:39;;;;;;;4.40;3.27;;;;;;;-150.27;100.00;61272.81;5250207;28;20123;-71
2022/04/20 01:44:10;;;;;;;8.90;4.33;;;;;;;-150.27;100.00;61272.81;5242803;28;20501;-70
2022/04/20 01:46:42;;;;;;;4.30;3.03;;;;;;;-150.27;100.00;61272.81;5224033;28;20038;-70
2022/04/20 01:49:13;;;;;;;8.63;3.57;;;;;;;-150.27;100.00;61272.81;5226214;28;20040;-70
2022/04/20 01:51:50;;;;;;;4.87;3.23;;;;;;;-150.27;100.00;61272.81;5255198;28;20505;-69
2022/04/20 01:54:21;;;;;;;4.30;3.33;;;;;;;-150.27;100.00;61272.81;5244196;28;20521;-70
2022/04/20 01:56:52;;;;;;;6.60;3.30;;;;;;;-150.27;100.00;61272.81;5233837;28;20025;-69
2022/04/20 01:59:24;;;;;;;4.50;2.90;;;;;;;-150.27;100.00;61272.81;5250677;28;20021;-69
2022/04/20 02:04:45;;;;;;;4.30;2.83;;;;;;;-150.27;100.00;61272.81;5244252;28;20033;-69
2022/04/20 02:07:16;;;;;;;8.57;3.23;;;;;;;-150.27;100.00;61272.81;5253303;28;20029;-69
2022/04/20 02:09:48;;;;;;;5.53;3.13;;;;;;;-150.27;100.00;61272.81;5247043;28;20053;-69
2022/04/20 02:12:19;;;;;;;4.50;2.83;;;;;;;-150.27;100.00;61272.81;5250306;28;20037;-70
2022/04/20 02:14:50;;;;;;;5.73;3.57;;;;;;;-150.27;100.00;61272.81;5238188;28;20436;-69
2022/04/20 02:17:22;;;;;;;7.33;3.80;;;;;;;-150.27;100.00;61272.81;5228992;28;20029;-69
2022/04/20 02:19:57;;;;;;;6.37;3.57;;;;;;;-150.27;100.00;61272.81;5251674;28;20025;-69
2022/04/20 02:22:28;;;;;;;7.63;3.50;;;;;;;-150.27;100.00;61272.81;5234314;28;20024;-69
2022/04/20 02:25:00;;;;;;;4.83;3.07;;;;;;;-150.27;100.00;61272.81;5248633;28;20044;-69
2022/04/20 02:27:31;;;;;;;5.80;3.80;;;;;;;-150.27;100.00;61272.81;5232341;28;20036;-70
2022/04/20 02:30:04;;;;;;;4.93;3.47;;;;;;;-150.27;100.00;61272.81;5250439;28;20123;-69
2022/04/20 02:32:35;;;;;;;7.63;3.50;;;;;;;-150.27;100.00;61272.81;5252039;28;20037;-70
2022/04/20 02:35:07;;;;;;;8.97;3.90;;;;;;;-150.27;100.00;61272.81;5249218;28;20025;-70
2022/04/20 02:37:38;;;;;;;4.80;3.20;;;;;;;-150.27;100.00;61272.81;5237595;28;20022;-70
2022/04/20 02:40:10;;;;;;;6.80;3.90;;;;;;;-150.27;100.00;61272.81;5248054;28;20112;-69
2022/04/20 02:42:42;;;;;;;6.90;4.20;;;;;;;-150.27;100.00;61272.81;5249138;28;20029;-70
2022/04/20 02:45:13;;;;;;;5.63;3.23;;;;;;;-150.27;100.00;61272.81;5248630;28;20029;-70
2022/04/20 02:47:44;;;;;;;9.37;3.67;;;;;;;-150.27;100.00;61272.81;5247629;28;20060;-70
2022/04/20 02:50:15;;;;;;;8.03;3.60;;;;;;;-150.27;100.00;61272.81;5248122;28;20025;-70
2022/04/20 02:52:47;;;;;;;4.60;3.80;;;;;;;-150.27;100.00;61272.81;5231435;28;20029;-70
2022/04/20 02:55:18;;;;;;;5.27;3.10;;;;;;;-150.27;100.00;61272.81;5248608;28;20471;-70
2022/04/20 02:57:50;;;;;;;10.60;4.23;;;;;;;-150.27;100.00;61272.81;5248910;28;20098;-70
2022/04/20 03:00:22;;;;;;;8.50;3.60;;;;;;;-150.27;100.00;61272.81;5230183;28;20029;-69
2022/04/20 03:02:53;;;;;;;5.60;4.03;;;;;;;-150.27;100.00;61272.81;5247446;28;20021;-70
2022/04/20 03:05:25;;;;;;;5.13;3.70;;;;;;;-150.27;100.00;61272.81;5229278;28;20017;-70
2022/04/20 03:07:56;;;;;;;5.27;3.50;;;;;;;-150.27;100.00;61272.81;5242604;28;20016;-70
2022/04/20 03:10:27;;;;;;;5.40;3.53;;;;;;;-150.27;100.00;61272.81;5244260;28;20490;-70
2022/04/20 03:12:59;;;;;;;8.37;4.33;;;;;;;-150.27;100.00;61272.81;5246082;28;20059;-69
2022/04/20 03:15:30;;;;;;;8.43;3.20;;;;;;;-150.27;100.00;61272.81;5245544;28;20021;-70
2022/04/20 03:18:02;;;;;;;6.13;3.47;;;;;;;-150.27;100.00;61272.81;5242786;28;20131;-71
2022/04/20 03:20:33;;;;;;;5.07;3.50;;;;;;;-150.27;100.00;61272.81;5251530;28;20124;-70
2022/04/20 03:23:06;;;;;;;7.60;3.87;;;;;;;-150.27;100.00;61272.81;5252648;28;20037;-70
2022/04/20 03:25:37;;;;;;;5.90;4.33;;;;;;;-150.27;100.00;61272.81;5253296;28;20645;-70
2022/04/20 03:28:08;;;;;;;7.73;3.83;;;;;;;-150.27;100.00;61272.81;5249777;28;20075;-70
2022/04/20 03:30:39;;;;;;;7.07;3.60;;;;;;;-150.27;100.00;61272.81;5251105;28;20037;-70
2022/04/20 03:33:11;;;;;;;6.70;3.47;;;;;;;-150.27;100.00;61272.81;5246019;28;20503;-70
2022/04/20 03:35:44;;;;;;;4.27;3.53;;;;;;;-150.27;100.00;61272.81;5230784;28;21115;-70
2022/04/20 03:38:15;;;;;;;5.97;4.00;;;;;;;-150.27;100.00;61272.81;5245307;28;20021;-70
2022/04/20 03:40:46;;;;;;;8.57;3.93;;;;;;;-150.27;100.00;61272.81;5230730;28;20136;-70
2022/04/20 03:43:18;;;;;;;5.30;3.47;;;;;;;-150.27;100.00;61272.81;5250179;28;20103;-70
2022/04/20 03:45:50;;;;;;;5.97;3.57;;;;;;;-150.27;100.00;61272.81;5254766;28;20490;-70
2022/04/20 03:48:22;;;;;;;6.87;3.40;;;;;;;-150.27;100.00;61272.81;5245112;28;20025;-71
2022/04/20 03:50:54;;;;;;;6.63;3.33;;;;;;;-150.27;100.00;61272.81;5226580;28;20043;-71
2022/04/20 03:53:25;;;;;;;7.63;3.70;;;;;;;-150.27;100.00;61272.81;5231210;28;20044;-70
2022/04/20 03:55:57;;;;;;;6.93;4.00;;;;;;;-150.27;100.00;61272.81;5230392;28;20123;-70
2022/04/20 03:58:28;;;;;;;5.50;4.03;;;;;;;-150.27;100.00;61272.81;5246657;28;20618;-71
2022/04/20 04:01:01;;;;;;;6.30;3.80;;;;;;;-150.27;100.00;61272.81;5232808;28;20045;-71
2022/04/20 04:03:34;;;;;;;5.43;3.70;;;;;;;-150.27;100.00;61272.81;5243523;28;20055;-70
2022/04/20 04:06:06;;;;;;;6.47;3.87;;;;;;;-150.27;100.00;61272.81;5250258;28;20514;-70
2022/04/20 04:08:37;;;;;;;6.43;4.00;;;;;;;-150.27;100.00;61272.81;5250356;28;20040;-70
2022/04/20 04:11:09;;;;;;;9.17;3.80;;;;;;;-150.27;100.00;61272.81;5230925;28;20061;-70
2022/04/20 04:13:40;;;;;;;8.57;4.17;;;;;;;-150.27;100.00;61272.81;5244263;28;20072;-70
2022/04/20 04:16:11;;;;;;;5.60;4.00;;;;;;;-150.27;100.00;61272.81;5244017;28;20037;-70
2022/04/20 04:18:42;;;;;;;5.97;3.70;;;;;;;-150.27;100.00;61272.81;5244570;28;20262;-70
2022/04/20 04:21:14;;;;;;;5.17;3.90;;;;;;;-150.27;100.00;61272.81;5249764;28;20036;-70
2022/04/20 04:23:45;;;;;;;6.30;4.17;;;;;;;-150.27;100.00;61272.81;5249347;28;20023;-69
2022/04/20 04:26:16;;;;;;;6.13;3.70;;;;;;;-150.27;100.00;61272.81;5249258;28;20044;-71
2022/04/20 04:28:48;;;;;;;4.40;3.60;;;;;;;-150.27;100.00;61272.81;5245207;28;20033;-70
2022/04/20 04:31:19;;;;;;;4.80;3.80;;;;;;;-150.27;100.00;61272.81;5223879;28;20041;-70
2022/04/20 04:33:50;;;;;;;5.40;4.07;;;;;;;-150.27;100.00;61272.81;5227086;28;20415;-70
2022/04/20 04:36:22;;;;;;;7.87;4.57;;;;;;;-150.27;100.00;61272.81;5253296;28;20044;-70
2022/04/20 04:38:54;;;;;;;5.47;3.63;;;;;;;-150.27;100.00;61272.81;5248801;28;20023;-70
2022/04/20 04:41:25;;;;;;;6.30;4.23;;;;;;;-150.27;100.00;61272.81;5242745;28;20456;-70
2022/04/20 04:43:56;;;;;;;7.07;3.80;;;;;;;-150.27;100.00;61272.81;5241172;28;20116;-70
2022/04/20 04:49:17;;;;;;;6.90;3.77;;;;;;;-150.27;100.00;61272.81;5233181;28;20061;-70
2022/04/20 04:51:49;;;;;;;9.23;4.20;;;;;;;-150.27;100.00;61272.81;5226588;28;20487;-70
2022/04/20 04:54:20;;;;;;;6.83;4.20;;;;;;;-150.27;100.00;61272.81;5237557;28;20218;-70
2022/04/20 04:56:52;;;;;;;6.20;4.47;;;;;;;-150.27;100.00;61272.81;5227257;28;20098;-70
2022/04/20 04:59:23;;;;;;;7.17;3.80;;;;;;;-150.27;100.00;61272.81;5223390;28;20468;-69
2022/04/20 05:01:55;;;;;;;6.90;4.30;;;;;;;-150.27;100.00;61272.81;5237016;28;20435;-70
2022/04/20 05:04:26;;;;;;;7.93;4.73;;;;;;;-150.27;100.00;61272.81;5243534;28;20659;-70
2022/04/20 05:06:58;;;;;;;7.97;4.60;;;;;;;-150.27;100.00;61272.81;5242181;28;20029;-71
2022/04/20 05:09:29;;;;;;;6.07;4.50;;;;;;;-150.27;100.00;61272.81;5245715;28;20025;-70
2022/04/20 05:12:01;;;;;;;8.00;4.53;;;;;;;-150.27;100.00;61272.81;5249169;28;20029;-69
2022/04/20 05:14:36;;;;;;;6.27;4.47;;;;;;;-150.27;100.00;61272.81;5249539;28;20035;-69
2022/04/20 05:17:07;;;;;;;7.90;4.87;;;;;;;-150.27;100.00;61272.81;5248512;28;20041;-71
2022/04/20 05:19:38;;;;;;;5.47;4.37;;;;;;;-150.27;100.00;61272.81;5253272;28;20089;-71
2022/04/20 05:22:09;;;;;;;7.07;4.63;;;;;;;-150.27;100.00;61272.81;5253034;28;20035;-70
2022/04/20 05:24:41;;;;;;;8.70;4.13;;;;;;;-150.27;100.00;61272.81;5247873;28;20118;-70
2022/04/20 05:27:13;;;;;;;6.07;3.83;;;;;;;-150.27;100.00;61272.81;5241393;28;20024;-71
2022/04/20 05:29:44;;;;;;;8.40;4.47;;;;;;;-150.27;100.00;61272.81;5251588;28;20490;-70
2022/04/20 05:32:16;;;;;;;7.13;4.53;;;;;;;-150.27;100.00;61272.81;5250806;28;20059;-71
2022/04/20 05:34:47;;;;;;;9.03;4.30;;;;;;;-150.27;100.00;61272.81;5248146;28;20029;-70
2022/04/20 05:42:59;;;;;;;15.17;5.40;;;;;;;-150.27;100.00;61272.81;5250904;28;20033;-71
2022/04/20 05:45:30;;;;;;;8.53;4.53;;;;;;;-150.27;100.00;61272.81;5249352;28;20017;-71
2022/04/20 05:48:03;;;;;;;7.97;4.43;;;;;;;-150.27;100.00;61272.81;5243069;28;20036;-70
2022/04/20 05:50:34;;;;;;;7.03;4.50;;;;;;;-150.27;100.00;61272.81;5237577;28;20030;-71
2022/04/20 05:53:05;;;;;;;8.47;4.77;;;;;;;-150.27;100.00;61272.81;5223391;28;20041;-71
2022/04/20 05:55:36;;;;;;;6.80;5.00;;;;;;;-150.27;100.00;61272.81;5241451;28;20033;-70
2022/04/20 05:58:08;;;;;;;8.80;5.03;;;;;;;-150.27;100.00;61272.81;5234275;28;20030;-71
2022/04/20 06:00:39;;;;;;;8.13;5.10;;;;;;;-150.27;100.00;61272.81;5241314;28;20108;-71
2022/04/20 06:03:11;;;;;;;8.07;4.73;;;;;;;-150.27;100.00;61272.81;5222209;28;20116;-70
2022/04/20 06:05:42;;;;;;;7.63;5.03;;;;;;;-150.27;100.00;61272.81;5247890;28;20028;-70
2022/04/20 06:08:14;;;;;;;7.33;4.87;;;;;;;-150.27;100.00;61272.81;5239548;28;20025;-70
2022/04/20 06:10:48;;;;;;;6.67;4.57;;;;;;;-150.27;100.00;61272.81;5246480;28;20137;-68
2022/04/20 06:13:19;;;;;;;;;;;;;;;-150.27;100.00;61272.81;5240553;28;20055;-71
2022/04/20 06:15:51;;;;;;;5.87;4.13;;;;;;;-150.27;100.00;61272.81;5245495;28;19924;-70
2022/04/20 06:18:22;;;;;;;6.93;4.60;;;;;;;-150.27;100.00;61272.81;5227094;28;20031;-71
2022/04/20 06:20:53;;;;;;;8.87;4.60;;;;;;;-150.27;100.00;61272.81;5250984;28;20046;-71
2022/04/20 06:23:25;;;;;;;8.83;4.77;;;;;;;-150.27;100.00;61272.81;5249857;28;20036;-70
2022/04/20 06:25:56;;;;;;;9.33;4.60;;;;;;;-150.27;100.00;61272.81;5241533;28;20020;-70
2022/04/20 06:28:28;;;;;;;8.73;3.97;;;;;;;-150.27;100.00;61272.81;5235525;28;20507;-70
2022/04/20 06:30:59;;;;;;;7.60;4.40;;;;;;;-150.27;100.00;61272.81;5242321;28;20138;-71
2022/04/20 06:33:31;;;;;;;10.17;4.90;;;;;;;-150.27;100.00;61272.81;5242019;28;20072;-70
2022/04/20 06:36:02;;;;;;;6.73;4.53;;;;;;;-150.27;100.00;61272.81;5239208;28;20033;-71
2022/04/20 06:38:33;;;;;;;7.90;4.53;;;;;;;-150.27;100.00;61272.81;5218256;28;20506;-71
2022/04/20 06:41:05;;;;;;;7.83;4.90;;;;;;;-150.27;100.00;61272.81;5235021;28;20033;-70
2022/04/20 06:43:36;;;;;;;8.13;4.37;;;;;;;-150.27;100.00;61272.81;5248704;28;20118;-71
2022/04/20 06:46:08;;;;;;;8.70;5.13;;;;;;;-150.27;100.00;61272.81;5236435;28;20060;-71
2022/04/20 06:48:39;;;;;;;6.93;4.63;;;;;;;-150.27;100.00;61272.81;5244748;28;20036;-70
2022/04/20 06:51:10;;;;;;;7.57;4.47;;;;;;;-150.27;100.00;61272.81;5242715;28;20037;-68
2022/04/20 06:59:23;;;;;;;11.73;4.83;;;;;;;-150.27;100.00;61272.81;5237985;28;20410;-70
2022/04/20 07:01:55;;;;;;;8.23;4.70;;;;;;;-150.27;100.00;61272.81;5239758;28;20552;-70
2022/04/20 07:04:26;;;;;;;7.40;4.40;;;;;;;-150.27;100.00;61272.81;5242279;28;20021;-72
2022/04/20 07:06:57;;;;;;;6.77;4.63;;;;;;;-150.27;100.00;61272.81;5246039;28;20031;-72
2022/04/20 07:09:29;;;;;;;9.10;4.97;;;;;;;-150.27;100.00;61272.81;5224799;28;20544;-71
2022/04/20 07:12:00;;;;;;;6.47;4.50;;;;;;;-150.27;100.00;61272.81;5246907;28;20024;-70
2022/04/20 07:14:31;;;;;;;9.17;4.67;;;;;;;-150.27;100.00;61272.81;5231721;28;20524;-70
2022/04/20 07:17:03;;;;;;;9.43;4.47;;;;;;;-150.27;100.00;61272.81;5228127;28;20040;-70
2022/04/20 07:19:35;;;;;;;7.77;4.07;;;;;;;-150.27;100.00;61272.81;5243329;28;20021;-69
2022/04/20 07:22:06;;;;;;;6.30;4.03;;;;;;;-150.27;100.00;61272.81;5243622;28;20632;-70
2022/04/20 07:24:37;;;;;;;9.17;4.40;;;;;;;-150.27;100.00;61272.81;5246606;28;20032;-70
2022/04/20 07:27:09;;;;;;;9.10;3.90;;;;;;;-150.27;100.00;61272.81;5246956;28;20550;-70
2022/04/20 07:29:40;;;;;;;7.57;4.47;;;;;;;-150.27;100.00;61272.81;5244738;28;20503;-70
2022/04/20 07:32:11;;;;;;;5.83;3.90;;;;;;;-150.27;100.00;61272.81;5244334;28;20480;-69
2022/04/20 07:34:43;;;;;;;8.93;3.17;;;;;;;-150.27;100.00;61272.81;5249788;28;20057;-70
2022/04/20 07:37:14;;;;;;;7.97;4.20;;;;;;;-150.27;100.00;61272.81;5248628;28;20029;-69
2022/04/20 07:39:45;;;;;;;5.90;3.80;;;;;;;-150.27;100.00;61272.81;5243246;28;20032;-69
2022/04/20 07:42:17;;;;;;;10.50;3.80;;;;;;;-150.27;100.00;61272.81;5244701;28;20403;-71
2022/04/20 07:44:48;;;;;;;7.90;3.73;;;;;;;-150.27;100.00;61272.81;5239357;28;20139;-70
2022/04/20 07:47:22;;;;;;;4.23;3.33;;;;;;;-150.27;100.00;61272.81;5242951;28;20033;-68
2022/04/20 07:52:47;;;;;;;7.57;3.90;;;;;;;-150.27;100.00;61272.81;5246075;28;19921;-69
2022/04/20 07:55:20;;;;;;;;;;;;;;;-150.27;100.00;61272.81;5247088;28;20087;-69
2022/04/20 07:57:53;;;;;;;12.60;3.97;;;;;;;-150.27;100.00;61272.81;5244519;28;19962;-69
2022/04/20 08:00:26;;;;;;;4.70;3.45;;;;;;;-150.27;100.00;61272.81;5223335;28;20021;-71
2022/04/20 08:03:11;;;;;;;8.57;3.70;;;;;;;-150.27;100.00;61272.81;5219271;28;20026;-69
2022/04/20 08:05:48;;;;;;;5.57;3.67;;;;;;;-150.27;100.00;61272.81;5221800;28;20116;-68
2022/04/20 08:08:22;;;;;;;6.63;3.60;;;;;;;-150.27;100.00;61272.81;5224301;28;20022;-70
2022/04/20 08:10:53;;;;;;;7.43;3.72;;;;;;;-150.27;100.00;61272.81;5230723;28;20483;-70
2022/04/20 08:16:14;;;;;;;9.07;4.13;;;;;;;-150.27;100.00;61272.81;5228661;28;20046;-70
2022/04/20 08:18:45;;;;;;;8.57;3.83;;;;;;;-150.27;100.00;61272.81;5228403;28;20539;-71
2022/04/20 08:21:17;;;;;;;11.73;4.13;;;;;;;-150.27;100.00;61272.81;5205536;28;20068;-70
2022/04/20 08:23:48;;;;;;;8.85;4.70;;;;;;;-150.27;100.00;61272.81;5230615;28;20025;-70
2022/04/20 08:26:20;;;;;;;10.55;4.35;;;;;;;-150.27;100.00;61272.81;5234914;28;20046;-70
2022/04/20 08:28:51;;;;;;;6.05;3.58;;;;;;;-150.27;100.00;61272.81;5235159;28;20064;-70
2022/04/20 08:31:22;;;;;;;8.93;3.58;;;;;;;-150.27;100.00;61272.81;5232426;28;20109;-70
2022/04/20 08:33:53;;;;;;;7.45;3.40;;;;;;;-150.27;100.00;61272.81;5236169;28;20033;-71
2022/04/20 08:36:25;;;;;;;9.57;4.10;;;;;;;-150.27;100.00;61272.81;5228356;28;20068;-69
2022/04/20 08:38:56;;;;;;;8.13;3.63;;;;;;;-150.27;100.00;61272.81;5249440;28;20032;-71
2022/04/20 08:41:28;;;;;;;7.00;3.88;;;;;;;-150.27;100.00;61272.81;5247779;28;20024;-71
2022/04/20 08:44:00;;;;;;;6.57;3.67;;;;;;;-150.27;100.00;61272.81;5248935;28;20037;-71
2022/04/20 08:46:39;;;;;;;8.75;3.50;;;;;;;-150.27;100.00;61272.81;5247428;28;20441;-71
2022/04/20 08:49:10;;;;;;;5.88;3.67;;;;;;;-150.27;100.00;61272.81;5244146;28;20064;-71
2022/04/20 08:54:33;;;;;;;6.03;3.85;;;;;;;-150.27;100.00;61272.81;5247329;28;20081;-70
2022/04/20 08:57:18;;;;;;;6.47;3.88;;;;;;;-150.27;100.00;61272.81;5243475;28;20112;-71
2022/04/20 08:59:50;;;;;;;7.05;3.58;;;;;;;-150.27;100.00;61272.81;5242686;28;20055;-70
2022/04/20 09:02:24;;;;;;;6.72;3.45;;;;;;;-150.27;100.00;61272.81;5237293;28;20024;-71
2022/04/20 09:04:56;;;;;;;8.68;3.92;;;;;;;-150.27;100.00;61272.81;5231628;28;20029;-71
2022/04/20 09:07:27;;;;;;;9.10;3.78;;;;;;;-150.27;100.00;61272.81;5227661;28;20029;-71
2022/04/20 09:10:00;;;;;;;6.93;3.58;;;;;;;-150.27;100.00;61272.81;5221997;28;20511;-70
2022/04/20 09:12:32;;;;;;;9.23;4.05;;;;;;;-150.27;100.00;61272.81;5227383;28;20115;-70
2022/04/20 09:15:04;;;;;;;6.28;3.50;;;;;;;-150.27;100.00;61272.81;5231676;28;20100;-71
2022/04/20 09:17:44;;;;;;;11.32;3.70;;;;;;;-150.27;100.00;61272.81;5235982;28;20021;-71
2022/04/20 09:20:17;;;;;;;5.90;3.75;;;;;;;-150.27;100.00;61272.81;5236607;28;20037;-70
2022/04/20 09:23:09;;;;;;;5.60;3.28;;;;;;;-150.27;100.00;61272.81;5213999;28;20491;-70
2022/04/20 09:25:47;;;;;;;4.97;3.60;;;;;;;-150.27;100.00;61272.81;5247211;28;20039;-71
2022/04/20 09:28:19;;;;;;;7.40;3.30;;;;;;;-150.27;100.00;61272.81;5248514;28;20031;-70
2022/04/20 09:30:51;;;;;;;4.43;3.05;;;;;;;-150.27;100.00;61272.81;5249055;28;20025;-70
2022/04/20 09:33:41;;;;;;;6.57;3.87;;;;;;;-150.27;100.00;61272.81;5248104;28;20146;-70
2022/04/20 09:36:13;;;;;;;12.43;3.05;;;;;;;-150.27;100.00;61272.81;5219146;28;20040;-70
2022/04/20 09:39:03;;;;;;;5.57;2.90;;;;;;;-150.27;100.00;61272.81;5242817;28;20032;-70
2022/04/20 09:41:54;;;;;;;6.03;2.75;;;;;;;-150.27;100.00;61272.81;5241770;28;20646;-70
2022/04/20 09:44:26;;;;;;;5.25;2.30;;;;;;;-150.27;100.00;61272.81;5239543;28;20464;-70
2022/04/20 09:49:54;;;;;;;5.13;2.28;;;;;;;-150.27;100.00;61272.81;5237526;28;20029;-71
2022/04/20 09:52:44;;;;;;;4.60;2.00;;;;;;;-150.27;100.00;61272.81;5242946;28;20021;-70
2022/04/20 09:55:27;;;;;;;5.35;3.00;;;;;;;-150.27;100.00;61272.81;5240282;28;20480;-70
2022/04/20 09:58:12;;;;;;;4.95;2.30;;;;;;;-150.27;100.00;61272.81;5230683;28;20094;-70
2022/04/20 10:00:52;;;;;;;4.10;2.03;;;;;;;-150.27;100.00;61272.81;5247686;28;20894;-70
2022/04/20 10:03:28;;;;;;;4.20;2.70;;;;;;;-150.27;100.00;61272.81;5245546;28;20038;-70
2022/04/20 10:06:00;;;;;;;9.55;2.53;;;;;;;-150.27;100.00;61272.81;5248435;28;20037;-70
2022/04/20 10:08:33;;;;;;;4.63;2.10;;;;;;;-150.27;100.00;61272.81;5243972;28;20061;-70
2022/04/20 10:11:05;;;;;;;5.60;2.70;;;;;;;-150.27;100.00;61272.81;5228127;28;20059;-70
2022/04/20 10:13:38;;;;;;;4.63;3.03;;;;;;;-150.27;100.00;61272.81;5243881;28;20029;-68
2022/04/20 10:16:12;;;;;;;7.28;2.47;;;;;;;-150.27;100.00;61272.81;5230077;28;20044;-69
2022/04/20 10:18:46;;;;;;;9.88;3.00;;;;;;;-150.27;100.00;61272.81;5247712;28;20240;-69
2022/04/20 10:21:20;;;;;;;7.55;2.75;;;;;;;-150.27;100.00;61272.81;5251018;28;20036;-69
2022/04/20 10:23:54;;;;;;;9.20;2.95;;;;;;;-150.27;100.00;61272.81;5221435;28;20018;-70
2022/04/20 10:26:26;;;;;;;2.83;1.92;;;;;;;-150.27;100.00;61272.81;5240176;28;20028;-69
2022/04/20 10:29:27;;;;;;;4.90;2.30;;;;;;;-150.27;100.00;61272.81;5250296;28;20151;-69
2022/04/20 10:32:22;;;;;;;6.80;2.67;;;;;;;-150.27;100.00;61272.81;5221222;28;20163;-70
2022/04/20 10:34:53;;;;;;;7.35;2.40;;;;;;;-150.27;100.00;61272.81;5250407;28;20025;-68
2022/04/20 10:37:31;;;;;;;7.45;2.35;;;;;;;-150.27;100.00;61272.81;5251370;28;20025;-69
2022/04/20 10:40:17;;;;;;;2.97;1.83;;;;;;;-150.27;100.00;61272.81;5241349;28;20710;-69
2022/04/20 10:43:20;;;;;;;2.83;1.95;;;;;;;-150.27;100.00;61272.81;5250412;28;20025;-70
2022/04/20 10:46:15;;;;;;;6.50;2.50;;;;;;;-150.27;100.00;61272.81;5239671;28;20021;-70
2022/04/20 10:48:52;;;;;;;5.75;1.90;;;;;;;-150.27;100.00;61272.81;5249480;28;20437;-68
2022/04/20 10:51:35;;;;;;;5.22;2.25;;;;;;;-150.27;100.00;61272.81;5244010;28;20025;-70
2022/04/20 10:54:24;;;;;;;5.80;2.40;;;;;;;-150.27;100.00;61272.81;5232454;28;20033;-70
2022/04/20 10:57:07;;;;;;;7.13;2.65;;;;;;;-150.27;100.00;61272.81;5235473;28;20029;-70
2022/04/20 10:59:42;;;;;;;11.05;2.80;;;;;;;-150.27;100.00;61272.81;5242251;28;20051;-70
2022/04/20 11:02:13;;;;;;;5.50;1.95;;;;;;;-150.27;100.00;61272.81;5225334;28;20024;-70
2022/04/20 11:04:50;;;;;;;3.50;1.95;;;;;;;-150.27;100.00;61272.81;5244927;28;20013;-70
2022/04/20 11:07:26;;;;;;;5.93;2.08;;;;;;;-150.27;100.00;61272.81;5205075;28;20464;-70
2022/04/20 11:10:02;;;;;;;5.32;2.20;;;;;;;-150.27;100.00;61272.81;5216230;28;20409;-68
2022/04/20 11:18:39;;;;;;;3.67;2.15;;;;;;;-150.27;100.00;61272.81;5150122;28;20039;-70
2022/04/20 11:21:12;;;;;;;5.55;2.35;;;;;;;-150.27;100.00;61272.81;5220330;28;20044;-69
2022/04/20 11:24:05;;;;;;;9.13;2.38;;;;;;;-150.27;100.00;61272.81;5250097;28;20411;-69
2022/04/20 11:26:39;;;;;;;5.00;2.00;;;;;;;-150.27;100.00;61272.81;5249037;28;20028;-70
2022/04/20 11:29:16;;;;;;;;;;;;;;;-150.27;100.00;61272.81;5249750;28;20115;-70
2022/04/20 11:31:54;;;;;;;3.00;2.10;;;;;;;-150.27;100.00;61272.81;5248584;28;19912;-74
2022/04/20 11:34:28;;;;;;;4.88;1.95;;;;;;;-150.27;100.00;61272.81;5235912;28;20061;-70
2022/04/20 11:37:00;;;;;;;3.00;2.08;;;;;;;-150.27;100.00;61272.81;5247804;28;20108;-69
2022/04/20 11:39:33;;;;;;;4.38;2.05;;;;;;;-150.27;100.00;61272.81;5235152;28;20029;-69
2022/04/20 11:42:06;;;;;;;4.68;1.83;;;;;;;-150.27;100.00;61272.81;5242647;28;20048;-68
2022/04/20 11:44:42;;;;;;;7.72;1.67;;;;;;;-150.27;100.00;61272.81;5229750;28;20043;-69
2022/04/20 11:47:17;;;;;;;4.28;1.88;;;;;;;-150.27;100.00;61272.81;5248126;28;20111;-69
2022/04/20 11:49:49;;;;;;;4.05;2.55;;;;;;;-150.27;100.00;61272.81;5248899;28;20025;-70
2022/04/20 11:52:21;;;;;;;5.57;2.05;;;;;;;-150.27;100.00;61272.81;5247652;28;20021;-67
2022/04/20 11:54:52;;;;;;;6.63;2.05;;;;;;;-150.27;100.00;61272.81;5247191;28;20075;-67
2022/04/20 11:57:23;;;;;;;4.07;2.08;;;;;;;-150.27;100.00;61272.81;5230430;28;20032;-69
2022/04/20 11:59:59;;;;;;;2.92;1.83;;;;;;;-150.27;100.00;61272.81;5238705;28;20448;-68
2022/04/20 12:02:30;;;;;;;3.25;1.98;;;;;;;-150.27;100.00;61272.81;5243685;28;20040;-69
2022/04/20 12:05:10;;;;;;;6.45;2.33;;;;;;;-150.27;100.00;61272.81;5248556;28;20024;-68
2022/04/20 12:07:42;;;;;;;6.18;2.40;;;;;;;-150.27;100.00;61272.81;5248758;28;20090;-69
2022/04/20 12:10:14;;;;;;;5.78;1.90;;;;;;;-150.27;100.00;61272.81;5221758;28;20416;-69